createdAt,value
2023-02-15T00:01:05.715Z,103.75
2023-02-15T00:02:14.843Z,104.49
2023-02-15T00:03:24.071Z,103.02
2023-02-15T00:04:33.164Z,102.78
2023-02-15T00:05:42.564Z,103.27
2023-02-15T00:06:51.528Z,103.51
2023-02-15T00:08:00.674Z,104
2023-02-15T00:09:09.911Z,104.49
2023-02-15T00:10:19.033Z,103.51
2023-02-15T00:11:28.203Z,101.31
2023-02-15T00:12:37.371Z,103.02
2023-02-15T00:13:46.570Z,103.02
2023-02-15T00:14:55.761Z,102.53
2023-02-15T00:16:03.899Z,101.8
2023-02-15T00:17:13.096Z,103.27
2023-02-15T00:18:22.265Z,104
2023-02-15T00:19:31.460Z,104.24
2023-02-15T00:20:40.648Z,102.29
2023-02-15T00:21:49.869Z,105.22
2023-02-15T00:22:58.942Z,103.75
2023-02-15T00:24:07.169Z,101.31
2023-02-15T00:25:15.321Z,102.53
2023-02-15T00:26:23.527Z,101.8
2023-02-15T00:27:31.713Z,101.07
2023-02-15T00:28:40.904Z,103.02
2023-02-15T00:29:50.063Z,102.53
2023-02-15T00:30:59.223Z,102.29
2023-02-15T00:32:08.428Z,102.05
2023-02-15T00:33:17.583Z,102.05
2023-02-15T00:34:26.787Z,104
2023-02-15T00:35:35.927Z,102.78
2023-02-15T00:36:45.096Z,102.05
2023-02-15T00:37:54.277Z,102.53
2023-02-15T00:39:03.445Z,103.27
2023-02-15T00:40:12.620Z,102.53
2023-02-15T00:41:21.782Z,104.98
2023-02-15T00:42:29.983Z,102.78
2023-02-15T00:43:39.142Z,103.75
2023-02-15T00:44:48.321Z,101.8
2023-02-15T00:45:57.494Z,104.49
2023-02-15T00:47:06.666Z,100.34
2023-02-15T00:48:15.840Z,102.05
2023-02-15T00:49:25.025Z,102.53
2023-02-15T00:50:33.209Z,101.07
2023-02-15T00:51:41.457Z,102.78
2023-02-15T00:52:50.578Z,103.02
2023-02-15T00:53:58.761Z,103.02
2023-02-15T00:55:07.946Z,102.53
2023-02-15T00:56:16.137Z,101.07
2023-02-15T00:57:25.305Z,103.27
2023-02-15T00:58:34.537Z,105.46
2023-02-15T00:59:43.649Z,102.53
2023-02-15T01:00:52.823Z,103.51
2023-02-15T01:02:01.984Z,103.02
2023-02-15T01:03:11.174Z,103.51
2023-02-15T01:04:20.410Z,102.05
2023-02-15T01:05:29.548Z,103.02
2023-02-15T01:06:38.706Z,103.51
2023-02-15T01:07:47.862Z,102.53
2023-02-15T01:08:57.038Z,102.29
2023-02-15T01:10:06.213Z,102.78
2023-02-15T01:11:14.388Z,103.75
2023-02-15T01:12:23.642Z,107.17
2023-02-15T01:13:32.742Z,101.31
2023-02-15T01:14:41.913Z,103.27
2023-02-15T01:15:51.103Z,100.83
2023-02-15T01:17:00.257Z,102.78
2023-02-15T01:18:08.459Z,102.29
2023-02-15T01:19:16.781Z,102.53
2023-02-15T01:20:24.966Z,101.31
2023-02-15T01:21:33.204Z,99.85
2023-02-15T01:22:42.265Z,99.12
2023-02-15T01:23:51.468Z,100.58
2023-02-15T01:25:00.702Z,99.85
2023-02-15T01:26:09.829Z,101.8
2023-02-15T01:27:19.076Z,99.6
2023-02-15T01:28:28.119Z,101.31
2023-02-15T01:29:37.393Z,100.34
2023-02-15T01:30:46.625Z,100.34
2023-02-15T01:31:55.708Z,101.31
2023-02-15T01:33:04.767Z,101.31
2023-02-15T01:34:14.073Z,101.07
2023-02-15T01:35:23.270Z,101.07
2023-02-15T01:36:31.298Z,101.8
2023-02-15T01:37:40.482Z,105.46
2023-02-15T01:38:49.707Z,101.8
2023-02-15T01:39:58.983Z,102.78
2023-02-15T01:41:08.173Z,99.36
2023-02-15T01:42:17.284Z,102.29
2023-02-15T01:43:26.338Z,103.51
2023-02-15T01:44:34.539Z,102.53
2023-02-15T01:45:42.730Z,101.07
2023-02-15T01:46:51.913Z,100.09
2023-02-15T01:48:00.086Z,101.8
2023-02-15T01:49:08.272Z,101.07
2023-02-15T01:50:17.494Z,101.31
2023-02-15T01:51:26.633Z,101.07
2023-02-15T01:52:35.955Z,99.12
2023-02-15T01:53:44.987Z,100.09
2023-02-15T01:54:54.252Z,99.36
2023-02-15T01:56:03.313Z,97.9
2023-02-15T01:57:12.504Z,97.16
2023-02-15T01:58:21.783Z,98.38
2023-02-15T01:59:30.918Z,97.41
2023-02-15T02:00:40.120Z,98.63
2023-02-15T02:01:49.325Z,96.19
2023-02-15T02:02:58.368Z,96.67
2023-02-15T02:04:06.649Z,96.19
2023-02-15T02:05:15.789Z,95.94
2023-02-15T02:06:24.911Z,95.21
2023-02-15T02:07:34.147Z,96.19
2023-02-15T02:08:42.377Z,93.26
2023-02-15T02:09:51.535Z,93.01
2023-02-15T02:11:00.607Z,93.99
2023-02-15T02:12:08.843Z,92.28
2023-02-15T02:13:17.167Z,91.79
2023-02-15T02:14:25.365Z,91.79
2023-02-15T02:15:33.465Z,90.82
2023-02-15T02:16:42.607Z,91.06
2023-02-15T02:17:51.827Z,92.04
2023-02-15T02:19:01.006Z,90.08
2023-02-15T02:20:10.211Z,91.3
2023-02-15T02:21:19.291Z,91.3
2023-02-15T02:22:28.488Z,91.79
2023-02-15T02:23:37.719Z,91.06
2023-02-15T02:24:46.799Z,90.57
2023-02-15T02:25:55.990Z,90.33
2023-02-15T02:27:05.167Z,91.55
2023-02-15T02:28:14.333Z,92.28
2023-02-15T02:29:23.524Z,92.77
2023-02-15T02:30:31.669Z,88.13
2023-02-15T02:31:40.919Z,89.35
2023-02-15T02:32:50.067Z,91.55
2023-02-15T02:33:59.271Z,88.62
2023-02-15T02:35:08.356Z,89.35
2023-02-15T02:36:17.506Z,88.86
2023-02-15T02:37:26.734Z,90.82
2023-02-15T02:38:34.872Z,88.37
2023-02-15T02:39:44.084Z,87.4
2023-02-15T02:40:52.307Z,86.91
2023-02-15T02:42:00.446Z,88.37
2023-02-15T02:43:09.617Z,88.13
2023-02-15T02:44:18.789Z,86.42
2023-02-15T02:45:27.959Z,88.86
2023-02-15T02:46:37.207Z,90.08
2023-02-15T02:47:46.302Z,87.64
2023-02-15T02:48:55.475Z,89.84
2023-02-15T02:50:04.752Z,89.11
2023-02-15T02:51:13.842Z,89.11
2023-02-15T02:52:22.999Z,91.55
2023-02-15T02:53:32.166Z,91.55
2023-02-15T02:54:41.341Z,93.01
2023-02-15T02:55:50.675Z,92.52
2023-02-15T02:56:58.708Z,94.23
2023-02-15T02:58:07.910Z,93.5
2023-02-15T02:59:17.085Z,96.19
2023-02-15T03:00:26.250Z,97.41
2023-02-15T03:01:35.433Z,96.92
2023-02-15T03:02:44.607Z,100.58
2023-02-15T03:03:53.850Z,97.9
2023-02-15T03:05:01.977Z,99.36
2023-02-15T03:06:10.169Z,101.07
2023-02-15T03:07:19.340Z,101.8
2023-02-15T03:08:27.521Z,99.36
2023-02-15T03:09:35.711Z,101.56
2023-02-15T03:10:44.893Z,101.31
2023-02-15T03:11:54.071Z,103.27
2023-02-15T03:13:03.229Z,101.56
2023-02-15T03:14:12.418Z,103.27
2023-02-15T03:15:21.627Z,102.78
2023-02-15T03:16:30.780Z,102.29
2023-02-15T03:17:39.919Z,103.51
2023-02-15T03:18:49.173Z,104.98
2023-02-15T03:19:58.297Z,102.29
2023-02-15T03:21:07.518Z,103.75
2023-02-15T03:22:16.623Z,105.71
2023-02-15T03:23:25.796Z,102.05
2023-02-15T03:24:33.989Z,102.29
2023-02-15T03:25:43.174Z,101.8
2023-02-15T03:26:52.336Z,102.53
2023-02-15T03:28:01.562Z,102.78
2023-02-15T03:29:10.673Z,103.51
2023-02-15T03:30:19.880Z,97.41
2023-02-15T03:31:29.029Z,101.31
2023-02-15T03:32:37.237Z,97.9
2023-02-15T03:33:45.410Z,98.38
2023-02-15T03:34:53.608Z,98.38
2023-02-15T03:36:01.794Z,98.63
2023-02-15T03:37:10.967Z,99.6
2023-02-15T03:38:20.138Z,98.87
2023-02-15T03:39:29.311Z,96.92
2023-02-15T03:40:38.495Z,99.12
2023-02-15T03:41:47.666Z,97.65
2023-02-15T03:42:56.832Z,101.07
2023-02-15T03:44:06.020Z,101.8
2023-02-15T03:45:15.206Z,100.83
2023-02-15T03:46:24.367Z,100.83
2023-02-15T03:47:33.582Z,97.16
2023-02-15T03:48:42.710Z,97.41
2023-02-15T03:49:51.904Z,95.7
2023-02-15T03:51:01.076Z,96.92
2023-02-15T03:52:09.242Z,95.45
2023-02-15T03:53:18.408Z,95.21
2023-02-15T03:54:27.597Z,93.5
2023-02-15T03:55:36.772Z,92.28
2023-02-15T03:56:45.965Z,92.77
2023-02-15T03:57:55.114Z,92.04
2023-02-15T03:59:03.312Z,93.75
2023-02-15T04:00:11.569Z,92.28
2023-02-15T04:01:19.683Z,90.08
2023-02-15T04:02:27.870Z,91.55
2023-02-15T04:03:37.046Z,90.08
2023-02-15T04:04:46.218Z,93.75
2023-02-15T04:05:55.422Z,88.62
2023-02-15T04:07:04.574Z,89.35
2023-02-15T04:08:13.748Z,91.55
2023-02-15T04:09:22.916Z,90.82
2023-02-15T04:10:32.086Z,90.08
2023-02-15T04:12:50.433Z,92.04
2023-02-15T04:13:59.609Z,92.28
2023-02-15T04:15:08.786Z,90.82
2023-02-15T04:16:17.953Z,90.57
2023-02-15T04:17:26.138Z,89.35
2023-02-15T04:18:35.321Z,89.35
2023-02-15T04:19:44.588Z,90.08
2023-02-15T04:20:53.681Z,89.84
2023-02-15T04:22:02.862Z,90.33
2023-02-15T04:23:12.015Z,90.82
2023-02-15T04:24:21.174Z,90.08
2023-02-15T04:25:30.364Z,90.82
2023-02-15T04:26:38.547Z,90.08
2023-02-15T04:27:47.726Z,88.62
2023-02-15T04:28:55.913Z,88.86
2023-02-15T04:30:04.110Z,87.89
2023-02-15T04:31:13.280Z,89.35
2023-02-15T04:32:22.514Z,89.35
2023-02-15T04:33:31.619Z,88.13
2023-02-15T04:34:40.810Z,88.86
2023-02-15T04:35:50.034Z,90.08
2023-02-15T04:36:59.146Z,89.59
2023-02-15T04:38:08.330Z,91.3
2023-02-15T04:39:17.501Z,89.35
2023-02-15T04:40:26.693Z,89.11
2023-02-15T04:41:35.830Z,87.89
2023-02-15T04:42:45.013Z,88.13
2023-02-15T04:43:54.182Z,89.59
2023-02-15T04:45:02.415Z,90.33
2023-02-15T04:46:11.576Z,92.28
2023-02-15T04:47:20.752Z,91.79
2023-02-15T04:48:29.897Z,93.99
2023-02-15T04:49:39.078Z,93.01
2023-02-15T04:50:48.310Z,92.28
2023-02-15T04:51:57.413Z,93.99
2023-02-15T04:53:05.625Z,93.75
2023-02-15T04:54:13.807Z,92.52
2023-02-15T04:55:22.990Z,94.23
2023-02-15T04:56:32.212Z,96.92
2023-02-15T04:57:41.334Z,98.38
2023-02-15T04:58:50.493Z,99.85
2023-02-15T04:59:59.665Z,99.6
2023-02-15T05:01:08.856Z,100.09
2023-02-15T05:02:18.030Z,102.78
2023-02-15T05:03:27.194Z,99.85
2023-02-15T05:04:36.362Z,101.07
2023-02-15T05:05:45.534Z,100.34
2023-02-15T05:06:54.709Z,102.05
2023-02-15T05:08:03.880Z,105.22
2023-02-15T05:09:12.067Z,104.73
2023-02-15T05:10:21.246Z,103.27
2023-02-15T05:11:30.418Z,102.78
2023-02-15T05:12:39.631Z,102.53
2023-02-15T05:13:48.761Z,104.49
2023-02-15T05:14:57.927Z,104.73
2023-02-15T05:16:07.116Z,104
2023-02-15T05:17:15.298Z,102.53
2023-02-15T05:18:23.488Z,103.27
2023-02-15T05:19:31.680Z,103.27
2023-02-15T05:20:39.961Z,104.49
2023-02-15T05:21:49.057Z,102.78
2023-02-15T05:22:58.219Z,105.22
2023-02-15T05:24:07.382Z,104
2023-02-15T05:25:16.580Z,103.27
2023-02-15T05:26:25.774Z,103.27
2023-02-15T05:27:34.969Z,101.8
2023-02-15T05:28:44.143Z,102.05
2023-02-15T05:29:53.269Z,101.31
2023-02-15T05:31:02.446Z,97.9
2023-02-15T05:32:11.620Z,97.65
2023-02-15T05:33:20.798Z,97.16
2023-02-15T05:34:29.953Z,96.19
2023-02-15T05:35:38.209Z,97.9
2023-02-15T05:36:47.320Z,93.75
2023-02-15T05:37:56.521Z,95.21
2023-02-15T05:39:05.671Z,94.97
2023-02-15T05:40:14.843Z,97.41
2023-02-15T05:41:24.045Z,95.94
2023-02-15T05:42:33.185Z,97.16
2023-02-15T05:43:41.417Z,95.21
2023-02-15T05:44:49.616Z,96.67
2023-02-15T05:45:58.749Z,96.19
2023-02-15T05:47:06.943Z,95.45
2023-02-15T05:48:15.257Z,97.9
2023-02-15T05:49:24.327Z,93.75
2023-02-15T05:50:33.477Z,94.48
2023-02-15T05:51:42.803Z,94.97
2023-02-15T05:52:51.831Z,95.7
2023-02-15T05:54:01.009Z,94.72
2023-02-15T05:55:10.165Z,92.77
2023-02-15T05:56:19.375Z,92.28
2023-02-15T05:57:28.564Z,93.99
2023-02-15T05:58:37.696Z,90.33
2023-02-15T05:59:45.882Z,95.21
2023-02-15T06:00:55.069Z,91.55
2023-02-15T06:02:04.235Z,91.55
2023-02-15T06:03:13.402Z,90.82
2023-02-15T06:04:22.629Z,105.22
2023-02-15T06:05:31.755Z,90.82
2023-02-15T06:06:40.948Z,93.5
2023-02-15T06:07:50.101Z,94.97
2023-02-15T06:08:59.325Z,93.5
2023-02-15T06:10:08.476Z,91.79
2023-02-15T06:11:16.698Z,94.72
2023-02-15T06:12:24.833Z,92.28
2023-02-15T06:13:34.006Z,93.26
2023-02-15T06:14:43.241Z,92.52
2023-02-15T06:15:51.371Z,91.3
2023-02-15T06:16:59.561Z,92.04
2023-02-15T06:18:08.731Z,91.79
2023-02-15T06:19:17.910Z,92.28
2023-02-15T06:20:27.082Z,93.99
2023-02-15T06:21:36.344Z,95.45
2023-02-15T06:22:45.497Z,97.41
2023-02-15T06:23:54.615Z,94.72
2023-02-15T06:25:03.797Z,93.26
2023-02-15T06:26:12.951Z,94.97
2023-02-15T06:27:22.123Z,93.75
2023-02-15T06:28:31.353Z,93.5
2023-02-15T06:29:40.478Z,96.19
2023-02-15T06:30:49.647Z,97.65
2023-02-15T06:31:57.835Z,96.19
2023-02-15T06:33:07.033Z,96.67
2023-02-15T06:34:16.180Z,97.16
2023-02-15T06:35:25.347Z,96.19
2023-02-15T06:36:34.539Z,98.63
2023-02-15T06:37:43.828Z,96.67
2023-02-15T06:38:52.909Z,97.65
2023-02-15T06:40:01.062Z,98.63
2023-02-15T06:41:09.263Z,97.41
2023-02-15T06:42:18.584Z,98.63
2023-02-15T06:43:27.741Z,99.36
2023-02-15T06:44:36.782Z,99.12
2023-02-15T06:45:45.960Z,101.07
2023-02-15T06:46:55.307Z,103.02
2023-02-15T06:48:04.427Z,102.29
2023-02-15T06:49:13.598Z,104
2023-02-15T06:50:22.635Z,105.95
2023-02-15T06:51:31.811Z,105.71
2023-02-15T06:52:41.061Z,106.93
2023-02-15T06:53:50.181Z,106.44
2023-02-15T06:54:59.349Z,107.66
2023-02-15T06:56:07.566Z,107.91
2023-02-15T06:57:16.731Z,108.39
2023-02-15T06:58:25.880Z,107.91
2023-02-15T06:59:35.062Z,107.42
2023-02-15T07:00:44.241Z,110.1
2023-02-15T07:01:53.422Z,109.37
2023-02-15T07:03:02.574Z,107.91
2023-02-15T07:04:10.813Z,106.2
2023-02-15T07:05:18.942Z,108.64
2023-02-15T07:06:28.265Z,104.49
2023-02-15T07:07:37.310Z,106.44
2023-02-15T07:09:55.640Z,107.66
2023-02-15T07:11:04.814Z,109.13
2023-02-15T07:12:13.984Z,109.37
2023-02-15T07:13:23.177Z,110.59
2023-02-15T07:14:32.403Z,111.08
2023-02-15T07:15:41.497Z,110.83
2023-02-15T07:16:50.677Z,112.06
2023-02-15T07:17:59.856Z,111.08
2023-02-15T07:19:09.029Z,110.1
2023-02-15T07:20:17.224Z,110.83
2023-02-15T07:21:26.435Z,108.39
2023-02-15T07:22:35.573Z,107.91
2023-02-15T07:23:44.803Z,106.93
2023-02-15T07:24:53.938Z,108.88
2023-02-15T07:26:03.095Z,106.2
2023-02-15T07:27:12.254Z,107.17
2023-02-15T07:28:21.416Z,108.15
2023-02-15T07:29:29.641Z,107.17
2023-02-15T07:30:37.964Z,106.2
2023-02-15T07:31:46.169Z,106.68
2023-02-15T07:32:54.192Z,105.71
2023-02-15T07:34:03.357Z,107.66
2023-02-15T07:35:12.540Z,108.15
2023-02-15T07:36:21.899Z,112.54
2023-02-15T07:37:30.889Z,113.28
2023-02-15T07:38:40.103Z,111.32
2023-02-15T07:39:49.249Z,113.28
2023-02-15T07:40:58.413Z,110.59
2023-02-15T07:42:07.584Z,112.06
2023-02-15T07:43:16.801Z,111.81
2023-02-15T07:44:26.021Z,109.86
2023-02-15T07:45:35.102Z,111.57
2023-02-15T07:46:44.301Z,109.86
2023-02-15T07:47:52.469Z,110.1
2023-02-15T07:49:01.663Z,110.83
2023-02-15T07:50:10.822Z,107.91
2023-02-15T07:51:20.019Z,111.08
2023-02-15T07:52:29.333Z,109.61
2023-02-15T07:53:38.475Z,110.1
2023-02-15T07:54:47.507Z,108.64
2023-02-15T07:55:55.698Z,108.39
2023-02-15T07:57:03.907Z,110.83
2023-02-15T07:58:12.085Z,110.1
2023-02-15T07:59:20.346Z,108.88
2023-02-15T08:00:29.454Z,108.64
2023-02-15T08:01:38.617Z,109.86
2023-02-15T08:02:47.795Z,106.93
2023-02-15T08:03:56.991Z,109.37
2023-02-15T08:05:06.161Z,113.76
2023-02-15T08:06:15.323Z,111.08
2023-02-15T08:07:24.534Z,110.59
2023-02-15T08:08:33.648Z,108.64
2023-02-15T08:09:42.845Z,108.64
2023-02-15T08:10:51.998Z,107.17
2023-02-15T08:12:01.202Z,109.61
2023-02-15T08:13:10.389Z,108.15
2023-02-15T08:14:18.543Z,107.17
2023-02-15T08:15:27.718Z,111.81
2023-02-15T08:16:36.904Z,110.35
2023-02-15T08:17:46.062Z,109.61
2023-02-15T08:18:55.230Z,109.37
2023-02-15T08:20:04.441Z,107.17
2023-02-15T08:21:13.581Z,106.44
2023-02-15T08:22:21.830Z,108.88
2023-02-15T08:23:29.976Z,109.37
2023-02-15T08:24:39.151Z,106.93
2023-02-15T08:25:47.340Z,107.91
2023-02-15T08:26:55.523Z,107.42
2023-02-15T08:28:04.682Z,108.64
2023-02-15T08:29:13.951Z,108.15
2023-02-15T08:30:23.056Z,107.91
2023-02-15T08:31:32.211Z,108.64
2023-02-15T08:32:41.387Z,108.88
2023-02-15T08:33:50.547Z,107.91
2023-02-15T08:34:59.775Z,108.88
2023-02-15T08:36:08.898Z,110.35
2023-02-15T08:37:18.065Z,109.86
2023-02-15T08:38:27.235Z,107.42
2023-02-15T08:39:36.494Z,106.44
2023-02-15T08:40:45.598Z,108.64
2023-02-15T08:41:53.773Z,109.37
2023-02-15T08:43:02.958Z,107.66
2023-02-15T08:44:12.208Z,108.88
2023-02-15T08:45:21.333Z,108.88
2023-02-15T08:46:30.473Z,109.13
2023-02-15T08:47:39.638Z,109.61
2023-02-15T08:48:48.802Z,107.91
2023-02-15T08:49:57.004Z,110.83
2023-02-15T08:51:05.192Z,110.1
2023-02-15T08:52:13.412Z,107.66
2023-02-15T08:53:21.612Z,109.86
2023-02-15T08:54:30.757Z,109.37
2023-02-15T08:55:39.923Z,110.59
2023-02-15T08:56:49.114Z,108.39
2023-02-15T08:57:58.264Z,109.86
2023-02-15T08:59:07.496Z,108.39
2023-02-15T09:00:16.612Z,108.64
2023-02-15T09:01:25.786Z,107.42
2023-02-15T09:02:34.964Z,109.86
2023-02-15T09:03:44.142Z,110.1
2023-02-15T09:04:53.313Z,110.1
2023-02-15T09:06:02.490Z,108.64
2023-02-15T09:07:11.647Z,108.15
2023-02-15T09:08:19.849Z,109.61
2023-02-15T09:09:29.042Z,111.57
2023-02-15T09:10:38.181Z,108.39
2023-02-15T09:11:47.385Z,107.66
2023-02-15T09:12:56.535Z,109.13
2023-02-15T09:14:05.703Z,108.39
2023-02-15T09:15:15.096Z,108.39
2023-02-15T09:16:23.072Z,109.37
2023-02-15T09:17:31.303Z,110.59
2023-02-15T09:18:39.446Z,108.39
2023-02-15T09:19:47.647Z,107.91
2023-02-15T09:20:56.834Z,109.13
2023-02-15T09:22:05.985Z,108.39
2023-02-15T09:23:15.162Z,109.61
2023-02-15T09:24:24.374Z,109.37
2023-02-15T09:25:33.498Z,110.1
2023-02-15T09:26:42.687Z,110.83
2023-02-15T09:27:51.848Z,108.88
2023-02-15T09:29:01.030Z,109.86
2023-02-15T09:30:10.192Z,109.61
2023-02-15T09:31:19.378Z,109.13
2023-02-15T09:32:28.557Z,108.39
2023-02-15T09:33:37.703Z,108.64
2023-02-15T09:34:45.895Z,107.66
2023-02-15T09:35:55.081Z,108.64
2023-02-15T09:37:04.229Z,109.13
2023-02-15T09:38:13.429Z,109.61
2023-02-15T09:39:22.635Z,108.39
2023-02-15T09:40:31.750Z,107.17
2023-02-15T09:41:40.988Z,106.2
2023-02-15T09:42:49.137Z,108.88
2023-02-15T09:43:57.308Z,108.88
2023-02-15T09:45:06.494Z,108.39
2023-02-15T09:46:15.688Z,109.86
2023-02-15T09:47:24.835Z,108.39
2023-02-15T09:48:34.007Z,109.37
2023-02-15T09:49:43.222Z,108.15
2023-02-15T09:50:51.404Z,108.15
2023-02-15T09:52:00.538Z,109.86
2023-02-15T09:53:09.729Z,107.91
2023-02-15T09:54:18.876Z,107.91
2023-02-15T09:55:28.057Z,109.86
2023-02-15T09:56:37.243Z,107.66
2023-02-15T09:57:46.412Z,108.64
2023-02-15T09:58:55.585Z,108.15
2023-02-15T10:00:04.749Z,109.61
2023-02-15T10:01:13.961Z,109.61
2023-02-15T10:02:23.146Z,107.66
2023-02-15T10:03:32.292Z,107.91
2023-02-15T10:04:41.425Z,107.42
2023-02-15T10:05:49.667Z,108.64
2023-02-15T10:06:57.815Z,110.59
2023-02-15T10:08:06.002Z,108.88
2023-02-15T10:09:14.197Z,108.88
2023-02-15T10:10:22.406Z,108.39
2023-02-15T10:11:31.693Z,107.17
2023-02-15T10:12:40.747Z,105.71
2023-02-15T10:13:48.937Z,105.22
2023-02-15T10:14:57.125Z,106.93
2023-02-15T10:16:06.307Z,107.42
2023-02-15T10:17:15.460Z,106.68
2023-02-15T10:18:24.629Z,107.17
2023-02-15T10:19:33.829Z,108.15
2023-02-15T10:20:42.977Z,108.39
2023-02-15T10:21:52.149Z,106.68
2023-02-15T10:23:01.349Z,105.95
2023-02-15T10:24:10.506Z,105.95
2023-02-15T10:25:19.674Z,107.17
2023-02-15T10:26:28.977Z,109.37
2023-02-15T10:27:38.005Z,106.68
2023-02-15T10:28:47.195Z,106.68
2023-02-15T10:29:55.471Z,108.15
2023-02-15T10:31:04.547Z,108.15
2023-02-15T10:32:13.710Z,106.68
2023-02-15T10:33:22.950Z,106.2
2023-02-15T10:34:32.114Z,107.91
2023-02-15T10:35:41.325Z,106.68
2023-02-15T10:36:50.393Z,107.66
2023-02-15T10:37:58.604Z,109.86
2023-02-15T10:39:06.817Z,105.95
2023-02-15T10:40:15.967Z,107.66
2023-02-15T10:41:24.217Z,107.91
2023-02-15T10:42:32.397Z,105.71
2023-02-15T10:43:41.615Z,108.15
2023-02-15T10:44:50.683Z,107.17
2023-02-15T10:45:59.868Z,105.71
2023-02-15T10:47:09.034Z,108.39
2023-02-15T10:48:18.229Z,107.17
2023-02-15T10:49:27.378Z,107.66
2023-02-15T10:50:36.605Z,107.42
2023-02-15T10:51:45.720Z,108.15
2023-02-15T10:52:54.932Z,108.15
2023-02-15T10:54:04.083Z,110.35
2023-02-15T10:55:13.246Z,107.91
2023-02-15T10:56:22.425Z,108.88
2023-02-15T10:57:30.598Z,108.39
2023-02-15T10:58:39.800Z,106.68
2023-02-15T10:59:48.940Z,107.17
2023-02-15T11:00:58.121Z,108.64
2023-02-15T11:02:07.339Z,109.13
2023-02-15T11:03:16.639Z,107.91
2023-02-15T11:04:25.725Z,107.91
2023-02-15T11:05:33.882Z,108.88
2023-02-15T11:06:42.168Z,107.66
2023-02-15T11:07:51.200Z,107.66
2023-02-15T11:09:00.360Z,106.68
2023-02-15T11:10:08.553Z,106.44
2023-02-15T11:11:16.737Z,107.17
2023-02-15T11:12:25.897Z,106.2
2023-02-15T11:13:35.080Z,109.13
2023-02-15T11:14:44.305Z,108.39
2023-02-15T11:15:53.426Z,107.66
2023-02-15T11:17:02.677Z,106.2
2023-02-15T11:18:11.775Z,106.68
2023-02-15T11:19:20.964Z,106.44
2023-02-15T11:20:30.163Z,106.68
2023-02-15T11:21:39.290Z,106.44
2023-02-15T11:23:57.649Z,106.68
2023-02-15T11:25:06.834Z,106.44
2023-02-15T11:26:14.978Z,106.44
2023-02-15T11:27:24.205Z,107.42
2023-02-15T11:28:33.338Z,106.68
2023-02-15T11:29:42.555Z,106.93
2023-02-15T11:30:51.710Z,104.49
2023-02-15T11:32:00.864Z,106.68
2023-02-15T11:33:10.012Z,105.95
2023-02-15T11:34:19.196Z,105.95
2023-02-15T11:35:27.388Z,106.68
2023-02-15T11:36:35.580Z,105.95
2023-02-15T11:37:43.785Z,104.49
2023-02-15T11:38:52.018Z,104.49
2023-02-15T11:40:01.145Z,107.17
2023-02-15T11:41:10.397Z,104.73
2023-02-15T11:42:19.475Z,106.68
2023-02-15T11:43:28.660Z,105.71
2023-02-15T11:44:37.821Z,106.2
2023-02-15T11:45:46.993Z,107.17
2023-02-15T11:46:56.159Z,105.46
2023-02-15T11:48:05.336Z,104.49
2023-02-15T11:50:23.679Z,104.24
2023-02-15T11:51:32.886Z,105.22
2023-02-15T11:52:42.030Z,107.91
2023-02-15T11:53:50.220Z,104.73
2023-02-15T11:54:59.428Z,108.39
2023-02-15T11:56:08.556Z,105.22
2023-02-15T11:57:17.738Z,104.73
2023-02-15T11:58:26.903Z,108.15
2023-02-15T11:59:36.124Z,103.02
2023-02-15T12:00:45.279Z,104.24
2023-02-15T12:01:54.446Z,106.68
2023-02-15T12:03:03.622Z,105.71
2023-02-15T12:04:11.899Z,104.73
2023-02-15T12:05:20.114Z,105.22
2023-02-15T12:06:28.268Z,109.37
2023-02-15T12:07:36.383Z,105.22
2023-02-15T12:08:45.554Z,106.93
2023-02-15T12:09:54.724Z,106.93
2023-02-15T12:11:03.895Z,106.44
2023-02-15T12:12:13.076Z,106.44
2023-02-15T12:13:22.268Z,107.42
2023-02-15T12:14:31.497Z,103.75
2023-02-15T12:15:40.579Z,105.71
2023-02-15T12:16:49.773Z,106.2
2023-02-15T12:17:59.006Z,107.66
2023-02-15T12:19:08.140Z,107.66
2023-02-15T12:20:17.279Z,106.44
2023-02-15T12:21:26.450Z,105.95
2023-02-15T12:22:34.689Z,106.93
2023-02-15T12:23:43.890Z,107.66
2023-02-15T12:24:52.983Z,106.44
2023-02-15T12:26:02.170Z,106.44
2023-02-15T12:27:11.341Z,107.91
2023-02-15T12:28:20.510Z,106.44
2023-02-15T12:29:29.678Z,107.17
2023-02-15T12:30:37.857Z,106.44
2023-02-15T12:31:46.054Z,106.44
2023-02-15T12:32:54.265Z,106.93
2023-02-15T12:34:02.480Z,104.73
2023-02-15T12:35:11.709Z,107.17
2023-02-15T12:36:20.785Z,107.17
2023-02-15T12:37:29.957Z,104.98
2023-02-15T12:38:39.119Z,108.88
2023-02-15T12:39:48.344Z,106.93
2023-02-15T12:40:57.502Z,104.98
2023-02-15T12:42:06.850Z,106.68
2023-02-15T12:43:15.980Z,104.73
2023-02-15T12:44:25.127Z,104.24
2023-02-15T12:45:34.291Z,107.17
2023-02-15T12:46:43.787Z,106.68
2023-02-15T12:47:52.648Z,104.98
2023-02-15T12:49:00.940Z,103.51
2023-02-15T12:50:10.181Z,104.98
2023-02-15T12:51:19.172Z,104.98
2023-02-15T12:52:28.222Z,105.95
2023-02-15T12:53:37.517Z,104
2023-02-15T12:54:46.606Z,104
2023-02-15T12:55:55.818Z,103.75
2023-02-15T12:57:03.923Z,104.24
2023-02-15T12:58:12.136Z,104.24
2023-02-15T12:59:20.294Z,103.27
2023-02-15T13:00:28.540Z,101.07
2023-02-15T13:01:37.659Z,100.34
2023-02-15T13:02:46.929Z,100.34
2023-02-15T13:03:55.998Z,98.38
2023-02-15T13:05:05.175Z,101.8
2023-02-15T13:06:14.345Z,99.12
2023-02-15T13:07:23.525Z,98.87
2023-02-15T13:08:32.699Z,99.6
2023-02-15T13:09:42.049Z,99.12
2023-02-15T13:10:51.036Z,99.85
2023-02-15T13:12:00.319Z,98.38
2023-02-15T13:13:09.459Z,99.36
2023-02-15T13:14:18.756Z,98.38
2023-02-15T13:15:26.774Z,97.9
2023-02-15T13:16:36.018Z,99.6
2023-02-15T13:17:45.199Z,98.87
2023-02-15T13:18:54.335Z,99.12
2023-02-15T13:20:03.482Z,102.29
2023-02-15T13:21:12.879Z,101.07
2023-02-15T13:22:21.844Z,102.53
2023-02-15T13:23:29.999Z,104.98
2023-02-15T13:24:38.262Z,104.24
2023-02-15T13:25:47.417Z,104.49
2023-02-15T13:26:56.530Z,105.95
2023-02-15T13:28:05.733Z,105.22
2023-02-15T13:29:14.976Z,107.17
2023-02-15T13:30:24.020Z,106.44
2023-02-15T13:31:33.209Z,106.93
2023-02-15T13:32:42.415Z,107.66
2023-02-15T13:33:51.527Z,105.22
2023-02-15T13:35:00.706Z,107.42
2023-02-15T13:36:09.933Z,108.64
2023-02-15T13:37:19.093Z,108.39
2023-02-15T13:38:28.223Z,109.13
2023-02-15T13:39:36.470Z,108.39
2023-02-15T13:40:45.585Z,109.61
2023-02-15T13:41:53.785Z,110.1
2023-02-15T13:43:02.945Z,110.59
2023-02-15T13:44:12.188Z,108.64
2023-02-15T13:45:21.296Z,109.13
2023-02-15T13:46:30.584Z,109.61
2023-02-15T13:47:38.662Z,110.59
2023-02-15T13:48:47.830Z,108.39
2023-02-15T13:49:56.025Z,108.88
2023-02-15T13:51:04.214Z,109.86
2023-02-15T13:52:12.460Z,119.38
2023-02-15T13:53:20.708Z,109.86
2023-02-15T13:54:29.811Z,110.59
2023-02-15T13:55:38.945Z,108.64
2023-02-15T13:56:48.118Z,108.64
2023-02-15T13:59:06.465Z,110.1
2023-02-15T14:00:15.641Z,105.95
2023-02-15T14:01:24.817Z,108.15
2023-02-15T14:02:34.008Z,106.68
2023-02-15T14:03:43.366Z,104.73
2023-02-15T14:04:52.450Z,107.42
2023-02-15T14:06:01.784Z,105.95
2023-02-15T14:07:10.830Z,102.05
2023-02-15T14:08:18.857Z,99.36
2023-02-15T14:09:28.290Z,98.87
2023-02-15T14:10:37.361Z,98.38
2023-02-15T14:11:46.618Z,97.9
2023-02-15T14:12:55.698Z,96.43
2023-02-15T14:14:04.797Z,96.67
2023-02-15T14:15:13.893Z,97.41
2023-02-15T14:16:23.127Z,97.16
2023-02-15T14:17:31.383Z,96.19
2023-02-15T14:19:48.759Z,99.6
2023-02-15T14:20:57.940Z,101.56
2023-02-15T14:22:06.145Z,98.87
2023-02-15T14:23:14.174Z,100.58
2023-02-15T14:24:23.361Z,99.6
2023-02-15T14:25:32.501Z,101.31
2023-02-15T14:26:41.693Z,104.24
2023-02-15T14:27:50.963Z,102.53
2023-02-15T14:29:00.178Z,104.49
2023-02-15T14:30:09.289Z,104.98
2023-02-15T14:31:18.455Z,105.22
2023-02-15T14:32:27.557Z,106.2
2023-02-15T14:33:36.904Z,105.71
2023-02-15T14:34:46.028Z,104.73
2023-02-15T14:35:55.059Z,108.39
2023-02-15T14:37:04.236Z,107.17
2023-02-15T14:38:13.404Z,107.42
2023-02-15T14:39:21.579Z,107.66